Main page
METAR-TAF:

METAR-TAF

Airports :

Sandspit Airport

Sandspit, British Columbia, Canada

latitude: 53-15N, longitude: 131-49W, elevation: 20 ft

Current weather observation

The report was made 57 minutes ago, at 12:00 UTC
Wind 12 mph from the West
Temperature 55°F
Humidity 94%
Pressure 30.14 in. Hg
Visibility: 9 miles
Clear sky

METAR: CYZP 141200Z AUTO 27010KT 9SM CLR 13/12 A3014 RMK SLP209

Time: 05:57 (12:57 UTC)

Forecast

The report was made 17 minutes ago, at 12:40 UTC
Forecast valid from 14 at 13 UTC to 15 at 01 UTC
Wind 14 mph from the West
Visibility: 6 miles
Clear sky
Becoming
from 14 at 14 UTC to 14 at 16 UTC
Wind 9 mph from the Southwest

TAF: CYZP 141240Z 1413/1501 27012KT P6SM SKC BECMG 1414/1416 22008KT RMK FCST BASED ON AUTO OBS. NXT FCST BY 141900Z

Weather observations and forecasts of more than 4000 airports (METAR and TAF reports).

The available stations are represented by yellow and red dots on the map.

Hover mouse over dot to see the name of the station.

Then click to see weather observations and forecasts.

To change the map : click on the green buttons with a black cross to zoom in, on the green button with a dash to zoom out, or on the green arrows for adjacent maps.


METAR-TAF: